sensor_id;sensor_type;location;lat;lon;timestamp;P1;P2;P0
64138;PMS5003;50435;43.700;-79.318;2023-11-21T00:02:24;0;0;
64138;PMS5003;50435;43.700;-79.318;2023-11-21T00:04:52;0;0;
64138;PMS5003;50435;43.700;-79.318;2023-11-21T00:07:19;0;0;
64138;PMS5003;50435;43.700;-79.318;2023-11-21T00:09:46;0;0;
64138;PMS5003;50435;43.700;-79.318;2023-11-21T00:12:15;0;0;
64138;PMS5003;50435;43.700;-79.318;2023-11-21T00:14:42;0;0;
64138;PMS5003;50435;43.700;-79.318;2023-11-21T00:17:09;0;0;
64138;PMS5003;50435;43.700;-79.318;2023-11-21T00:19:37;0;0;
64138;PMS5003;50435;43.700;-79.318;2023-11-21T00:22:04;0;0;
64138;PMS5003;50435;43.700;-79.318;2023-11-21T00:24:31;1;0;
64138;PMS5003;50435;43.700;-79.318;2023-11-21T00:26:59;0;0;
64138;PMS5003;50435;43.700;-79.318;2023-11-21T00:29:26;0;0;
64138;PMS5003;50435;43.700;-79.318;2023-11-21T00:31:54;0;0;
64138;PMS5003;50435;43.700;-79.318;2023-11-21T00:34:21;0;0;
64138;PMS5003;50435;43.700;-79.318;2023-11-21T00:36:49;0;0;
64138;PMS5003;50435;43.700;-79.318;2023-11-21T00:39:17;0;0;
64138;PMS5003;50435;43.700;-79.318;2023-11-21T00:41:44;2;1;
64138;PMS5003;50435;43.700;-79.318;2023-11-21T00:44:11;1;1;
64138;PMS5003;50435;43.700;-79.318;2023-11-21T00:46:39;1;1;
64138;PMS5003;50435;43.700;-79.318;2023-11-21T00:49:06;0;0;
64138;PMS5003;50435;43.700;-79.318;2023-11-21T00:51:33;2;1;
64138;PMS5003;50435;43.700;-79.318;2023-11-21T00:54:01;0;0;
64138;PMS5003;50435;43.700;-79.318;2023-11-21T00:56:29;0;0;
64138;PMS5003;50435;43.700;-79.318;2023-11-21T00:58:56;0;0;
64138;PMS5003;50435;43.700;-79.318;2023-11-21T01:01:24;0;0;
64138;PMS5003;50435;43.700;-79.318;2023-11-21T01:03:51;0;0;
64138;PMS5003;50435;43.700;-79.318;2023-11-21T01:06:18;0;0;
64138;PMS5003;50435;43.700;-79.318;2023-11-21T01:08:46;0;0;
64138;PMS5003;50435;43.700;-79.318;2023-11-21T01:11:13;0;0;
64138;PMS5003;50435;43.700;-79.318;2023-11-21T01:13:41;1;1;
64138;PMS5003;50435;43.700;-79.318;2023-11-21T01:16:09;0;0;
64138;PMS5003;50435;43.700;-79.318;2023-11-21T01:18:36;0;0;
64138;PMS5003;50435;43.700;-79.318;2023-11-21T01:21:04;0;0;
64138;PMS5003;50435;43.700;-79.318;2023-11-21T01:23:32;0;0;
64138;PMS5003;50435;43.700;-79.318;2023-11-21T01:25:59;0;0;
64138;PMS5003;50435;43.700;-79.318;2023-11-21T01:28:26;1;1;
64138;PMS5003;50435;43.700;-79.318;2023-11-21T01:30:53;0;0;
64138;PMS5003;50435;43.700;-79.318;2023-11-21T01:33:21;1;0;
64138;PMS5003;50435;43.700;-79.318;2023-11-21T01:35:49;0;0;
64138;PMS5003;50435;43.700;-79.318;2023-11-21T01:38:16;0;0;
64138;PMS5003;50435;43.700;-79.318;2023-11-21T01:40:44;0;0;
64138;PMS5003;50435;43.700;-79.318;2023-11-21T01:43:11;0;0;
64138;PMS5003;50435;43.700;-79.318;2023-11-21T01:45:39;0;0;
64138;PMS5003;50435;43.700;-79.318;2023-11-21T01:48:06;0;0;
64138;PMS5003;50435;43.700;-79.318;2023-11-21T01:50:34;0;0;
64138;PMS5003;50435;43.700;-79.318;2023-11-21T01:53:02;0;0;
64138;PMS5003;50435;43.700;-79.318;2023-11-21T01:55:30;0;0;
64138;PMS5003;50435;43.700;-79.318;2023-11-21T01:57:57;0;0;
64138;PMS5003;50435;43.700;-79.318;2023-11-21T02:00:25;0;0;
64138;PMS5003;50435;43.700;-79.318;2023-11-21T02:02:53;0;0;
64138;PMS5003;50435;43.700;-79.318;2023-11-21T02:05:20;0;0;
64138;PMS5003;50435;43.700;-79.318;2023-11-21T02:07:48;0;0;
64138;PMS5003;50435;43.700;-79.318;2023-11-21T02:10:15;0;0;
64138;PMS5003;50435;43.700;-79.318;2023-11-21T02:12:43;0;0;
64138;PMS5003;50435;43.700;-79.318;2023-11-21T02:15:11;1;1;
64138;PMS5003;50435;43.700;-79.318;2023-11-21T02:17:40;0;0;
64138;PMS5003;50435;43.700;-79.318;2023-11-21T02:20:08;1;1;
64138;PMS5003;50435;43.700;-79.318;2023-11-21T02:22:36;0;0;
64138;PMS5003;50435;43.700;-79.318;2023-11-21T02:25:07;0;0;
64138;PMS5003;50435;43.700;-79.318;2023-11-21T02:27:34;0;0;
64138;PMS5003;50435;43.700;-79.318;2023-11-21T02:30:02;0;0;
64138;PMS5003;50435;43.700;-79.318;2023-11-21T02:32:30;0;0;
64138;PMS5003;50435;43.700;-79.318;2023-11-21T02:34:57;0;0;
64138;PMS5003;50435;43.700;-79.318;2023-11-21T02:37:25;0;0;
64138;PMS5003;50435;43.700;-79.318;2023-11-21T02:39:53;1;0;
64138;PMS5003;50435;43.700;-79.318;2023-11-21T02:42:20;1;1;
64138;PMS5003;50435;43.700;-79.318;2023-11-21T02:44:48;0;0;
64138;PMS5003;50435;43.700;-79.318;2023-11-21T02:47:15;1;1;
64138;PMS5003;50435;43.700;-79.318;2023-11-21T02:49:42;0;0;
64138;PMS5003;50435;43.700;-79.318;2023-11-21T02:52:10;0;0;
64138;PMS5003;50435;43.700;-79.318;2023-11-21T02:54:37;0;0;
64138;PMS5003;50435;43.700;-79.318;2023-11-21T02:57:04;0;0;
64138;PMS5003;50435;43.700;-79.318;2023-11-21T02:59:32;0;0;
64138;PMS5003;50435;43.700;-79.318;2023-11-21T03:01:59;1;0;
64138;PMS5003;50435;43.700;-79.318;2023-11-21T03:04:26;1;0;
64138;PMS5003;50435;43.700;-79.318;2023-11-21T03:06:54;1;0;
64138;PMS5003;50435;43.700;-79.318;2023-11-21T03:09:21;0;0;
64138;PMS5003;50435;43.700;-79.318;2023-11-21T03:11:49;1;1;
64138;PMS5003;50435;43.700;-79.318;2023-11-21T03:14:16;2;1;
64138;PMS5003;50435;43.700;-79.318;2023-11-21T03:16:43;0;0;
64138;PMS5003;50435;43.700;-79.318;2023-11-21T03:19:11;0;0;
64138;PMS5003;50435;43.700;-79.318;2023-11-21T03:21:38;0;0;
64138;PMS5003;50435;43.700;-79.318;2023-11-21T03:24:06;1;0;
64138;PMS5003;50435;43.700;-79.318;2023-11-21T03:26:34;1;0;
64138;PMS5003;50435;43.700;-79.318;2023-11-21T03:29:01;0;0;
64138;PMS5003;50435;43.700;-79.318;2023-11-21T03:31:28;1;1;
64138;PMS5003;50435;43.700;-79.318;2023-11-21T03:33:56;0;0;
64138;PMS5003;50435;43.700;-79.318;2023-11-21T03:36:23;0;0;
64138;PMS5003;50435;43.700;-79.318;2023-11-21T03:38:50;1;0;
64138;PMS5003;50435;43.700;-79.318;2023-11-21T03:41:18;0;0;
64138;PMS5003;50435;43.700;-79.318;2023-11-21T03:43:45;1;0;
64138;PMS5003;50435;43.700;-79.318;2023-11-21T03:46:13;0;0;
64138;PMS5003;50435;43.700;-79.318;2023-11-21T03:48:41;0;0;
64138;PMS5003;50435;43.700;-79.318;2023-11-21T03:51:08;0;0;
64138;PMS5003;50435;43.700;-79.318;2023-11-21T03:53:35;0;0;
64138;PMS5003;50435;43.700;-79.318;2023-11-21T03:56:03;0;0;
64138;PMS5003;50435;43.700;-79.318;2023-11-21T03:58:31;0;0;
64138;PMS5003;50435;43.700;-79.318;2023-11-21T04:00:58;0;0;
64138;PMS5003;50435;43.700;-79.318;2023-11-21T04:03:26;1;1;
64138;PMS5003;50435;43.700;-79.318;2023-11-21T04:05:53;0;0;
64138;PMS5003;50435;43.700;-79.318;2023-11-21T04:08:20;0;0;
64138;PMS5003;50435;43.700;-79.318;2023-11-21T04:10:48;1;0;
64138;PMS5003;50435;43.700;-79.318;2023-11-21T04:13:15;0;0;
64138;PMS5003;50435;43.700;-79.318;2023-11-21T04:15:42;0;0;
64138;PMS5003;50435;43.700;-79.318;2023-11-21T04:18:10;2;1;
64138;PMS5003;50435;43.700;-79.318;2023-11-21T04:20:37;0;0;
64138;PMS5003;50435;43.700;-79.318;2023-11-21T04:23:04;0;0;
64138;PMS5003;50435;43.700;-79.318;2023-11-21T04:25:32;0;0;
64138;PMS5003;50435;43.700;-79.318;2023-11-21T04:27:59;0;0;
64138;PMS5003;50435;43.700;-79.318;2023-11-21T04:30:26;0;0;
64138;PMS5003;50435;43.700;-79.318;2023-11-21T04:32:54;0;0;
64138;PMS5003;50435;43.700;-79.318;2023-11-21T04:35:21;0;0;
64138;PMS5003;50435;43.700;-79.318;2023-11-21T04:37:49;0;0;
64138;PMS5003;50435;43.700;-79.318;2023-11-21T04:40:16;0;0;
64138;PMS5003;50435;43.700;-79.318;2023-11-21T04:42:43;0;0;
64138;PMS5003;50435;43.700;-79.318;2023-11-21T04:45:11;0;0;
64138;PMS5003;50435;43.700;-79.318;2023-11-21T04:47:38;0;0;
64138;PMS5003;50435;43.700;-79.318;2023-11-21T04:50:06;0;0;
64138;PMS5003;50435;43.700;-79.318;2023-11-21T04:52:34;1;1;
64138;PMS5003;50435;43.700;-79.318;2023-11-21T04:55:02;0;0;
64138;PMS5003;50435;43.700;-79.318;2023-11-21T04:57:30;0;0;
64138;PMS5003;50435;43.700;-79.318;2023-11-21T04:59:57;0;0;
64138;PMS5003;50435;43.700;-79.318;2023-11-21T05:02:25;0;0;
64138;PMS5003;50435;43.700;-79.318;2023-11-21T05:04:52;0;0;
64138;PMS5003;50435;43.700;-79.318;2023-11-21T05:07:19;0;0;
64138;PMS5003;50435;43.700;-79.318;2023-11-21T05:09:47;0;0;
64138;PMS5003;50435;43.700;-79.318;2023-11-21T05:12:14;0;0;
64138;PMS5003;50435;43.700;-79.318;2023-11-21T05:14:41;0;0;
64138;PMS5003;50435;43.700;-79.318;2023-11-21T05:17:09;0;0;
64138;PMS5003;50435;43.700;-79.318;2023-11-21T05:19:36;0;0;
64138;PMS5003;50435;43.700;-79.318;2023-11-21T05:22:03;0;0;
64138;PMS5003;50435;43.700;-79.318;2023-11-21T05:24:31;0;0;
64138;PMS5003;50435;43.700;-79.318;2023-11-21T05:26:58;0;0;
64138;PMS5003;50435;43.700;-79.318;2023-11-21T05:29:25;0;0;
64138;PMS5003;50435;43.700;-79.318;2023-11-21T05:31:53;1;0;
64138;PMS5003;50435;43.700;-79.318;2023-11-21T05:34:20;1;1;
64138;PMS5003;50435;43.700;-79.318;2023-11-21T05:36:47;0;0;
64138;PMS5003;50435;43.700;-79.318;2023-11-21T05:39:15;0;0;
64138;PMS5003;50435;43.700;-79.318;2023-11-21T05:41:42;0;0;
64138;PMS5003;50435;43.700;-79.318;2023-11-21T05:44:09;0;0;
64138;PMS5003;50435;43.700;-79.318;2023-11-21T05:46:37;0;0;
64138;PMS5003;50435;43.700;-79.318;2023-11-21T05:49:04;0;0;
64138;PMS5003;50435;43.700;-79.318;2023-11-21T05:51:31;0;0;
64138;PMS5003;50435;43.700;-79.318;2023-11-21T05:53:59;0;0;
64138;PMS5003;50435;43.700;-79.318;2023-11-21T05:56:26;0;0;
64138;PMS5003;50435;43.700;-79.318;2023-11-21T05:58:53;0;0;
64138;PMS5003;50435;43.700;-79.318;2023-11-21T06:01:21;0;0;
64138;PMS5003;50435;43.700;-79.318;2023-11-21T06:03:48;0;0;
64138;PMS5003;50435;43.700;-79.318;2023-11-21T06:06:15;0;0;
64138;PMS5003;50435;43.700;-79.318;2023-11-21T06:08:43;0;0;
64138;PMS5003;50435;43.700;-79.318;2023-11-21T06:11:10;1;1;
64138;PMS5003;50435;43.700;-79.318;2023-11-21T06:13:37;0;0;
64138;PMS5003;50435;43.700;-79.318;2023-11-21T06:16:05;1;1;
64138;PMS5003;50435;43.700;-79.318;2023-11-21T06:18:33;2;0;
64138;PMS5003;50435;43.700;-79.318;2023-11-21T06:21:00;0;0;
64138;PMS5003;50435;43.700;-79.318;2023-11-21T06:23:27;1;1;
64138;PMS5003;50435;43.700;-79.318;2023-11-21T06:25:55;0;0;
64138;PMS5003;50435;43.700;-79.318;2023-11-21T06:28:22;1;1;
64138;PMS5003;50435;43.700;-79.318;2023-11-21T06:30:49;0;0;
64138;PMS5003;50435;43.700;-79.318;2023-11-21T06:33:17;0;0;
64138;PMS5003;50435;43.700;-79.318;2023-11-21T06:35:44;0;0;
64138;PMS5003;50435;43.700;-79.318;2023-11-21T06:38:11;0;0;
64138;PMS5003;50435;43.700;-79.318;2023-11-21T06:40:39;1;1;
64138;PMS5003;50435;43.700;-79.318;2023-11-21T06:43:06;1;1;
64138;PMS5003;50435;43.700;-79.318;2023-11-21T06:45:33;1;1;
64138;PMS5003;50435;43.700;-79.318;2023-11-21T06:48:01;0;0;
64138;PMS5003;50435;43.700;-79.318;2023-11-21T06:50:28;0;0;
64138;PMS5003;50435;43.700;-79.318;2023-11-21T06:52:55;1;1;
64138;PMS5003;50435;43.700;-79.318;2023-11-21T06:55:23;1;1;
64138;PMS5003;50435;43.700;-79.318;2023-11-21T06:57:50;0;0;
64138;PMS5003;50435;43.700;-79.318;2023-11-21T07:00:17;4;2;
64138;PMS5003;50435;43.700;-79.318;2023-11-21T07:02:44;0;0;
64138;PMS5003;50435;43.700;-79.318;2023-11-21T07:05:12;0;0;
64138;PMS5003;50435;43.700;-79.318;2023-11-21T07:07:39;1;0;
64138;PMS5003;50435;43.700;-79.318;2023-11-21T07:10:07;0;0;
64138;PMS5003;50435;43.700;-79.318;2023-11-21T07:12:34;0;0;
64138;PMS5003;50435;43.700;-79.318;2023-11-21T07:15:02;1;1;
64138;PMS5003;50435;43.700;-79.318;2023-11-21T07:17:30;0;0;
64138;PMS5003;50435;43.700;-79.318;2023-11-21T07:19:57;1;1;
64138;PMS5003;50435;43.700;-79.318;2023-11-21T07:22:25;2;1;
64138;PMS5003;50435;43.700;-79.318;2023-11-21T07:24:52;2;2;
64138;PMS5003;50435;43.700;-79.318;2023-11-21T07:27:19;1;1;
64138;PMS5003;50435;43.700;-79.318;2023-11-21T07:29:47;1;1;
64138;PMS5003;50435;43.700;-79.318;2023-11-21T07:32:14;1;1;
64138;PMS5003;50435;43.700;-79.318;2023-11-21T07:34:42;0;0;
64138;PMS5003;50435;43.700;-79.318;2023-11-21T07:37:10;1;1;
64138;PMS5003;50435;43.700;-79.318;2023-11-21T07:39:37;2;2;
64138;PMS5003;50435;43.700;-79.318;2023-11-21T07:42:04;1;1;
64138;PMS5003;50435;43.700;-79.318;2023-11-21T07:44:32;1;1;
64138;PMS5003;50435;43.700;-79.318;2023-11-21T07:46:59;0;0;
64138;PMS5003;50435;43.700;-79.318;2023-11-21T07:49:26;0;0;
64138;PMS5003;50435;43.700;-79.318;2023-11-21T07:51:54;0;0;
64138;PMS5003;50435;43.700;-79.318;2023-11-21T07:54:22;0;0;
64138;PMS5003;50435;43.700;-79.318;2023-11-21T07:56:49;0;0;
64138;PMS5003;50435;43.700;-79.318;2023-11-21T07:59:16;1;1;
64138;PMS5003;50435;43.700;-79.318;2023-11-21T08:01:44;0;0;
64138;PMS5003;50435;43.700;-79.318;2023-11-21T08:04:11;0;0;
64138;PMS5003;50435;43.700;-79.318;2023-11-21T08:06:38;0;0;
64138;PMS5003;50435;43.700;-79.318;2023-11-21T08:09:06;1;1;
64138;PMS5003;50435;43.700;-79.318;2023-11-21T08:11:33;0;0;
64138;PMS5003;50435;43.700;-79.318;2023-11-21T08:14:00;0;0;
64138;PMS5003;50435;43.700;-79.318;2023-11-21T08:16:28;2;2;
64138;PMS5003;50435;43.700;-79.318;2023-11-21T08:18:55;1;1;
64138;PMS5003;50435;43.700;-79.318;2023-11-21T08:21:22;1;0;
64138;PMS5003;50435;43.700;-79.318;2023-11-21T08:23:50;1;1;
64138;PMS5003;50435;43.700;-79.318;2023-11-21T08:26:17;0;0;
64138;PMS5003;50435;43.700;-79.318;2023-11-21T08:28:44;0;0;
64138;PMS5003;50435;43.700;-79.318;2023-11-21T08:31:12;1;0;
64138;PMS5003;50435;43.700;-79.318;2023-11-21T08:33:39;1;1;
64138;PMS5003;50435;43.700;-79.318;2023-11-21T08:36:07;1;1;
64138;PMS5003;50435;43.700;-79.318;2023-11-21T08:38:35;2;1;
64138;PMS5003;50435;43.700;-79.318;2023-11-21T08:41:04;1;1;
64138;PMS5003;50435;43.700;-79.318;2023-11-21T08:43:32;1;1;
64138;PMS5003;50435;43.700;-79.318;2023-11-21T08:46:00;2;1;
64138;PMS5003;50435;43.700;-79.318;2023-11-21T08:48:27;1;1;
64138;PMS5003;50435;43.700;-79.318;2023-11-21T08:50:55;1;1;
64138;PMS5003;50435;43.700;-79.318;2023-11-21T08:53:22;2;2;
64138;PMS5003;50435;43.700;-79.318;2023-11-21T08:55:50;1;1;
64138;PMS5003;50435;43.700;-79.318;2023-11-21T08:58:17;3;1;
64138;PMS5003;50435;43.700;-79.318;2023-11-21T09:00:44;2;2;
64138;PMS5003;50435;43.700;-79.318;2023-11-21T09:03:12;1;1;
64138;PMS5003;50435;43.700;-79.318;2023-11-21T09:05:40;2;2;
64138;PMS5003;50435;43.700;-79.318;2023-11-21T09:08:07;2;1;
64138;PMS5003;50435;43.700;-79.318;2023-11-21T09:10:34;2;2;
64138;PMS5003;50435;43.700;-79.318;2023-11-21T09:13:02;5;2;
64138;PMS5003;50435;43.700;-79.318;2023-11-21T09:15:29;5;3;
64138;PMS5003;50435;43.700;-79.318;2023-11-21T09:17:56;3;3;
64138;PMS5003;50435;43.700;-79.318;2023-11-21T09:20:24;2;2;
64138;PMS5003;50435;43.700;-79.318;2023-11-21T09:22:52;5;5;
64138;PMS5003;50435;43.700;-79.318;2023-11-21T09:25:19;2;2;
64138;PMS5003;50435;43.700;-79.318;2023-11-21T09:27:46;2;1;
64138;PMS5003;50435;43.700;-79.318;2023-11-21T09:30:14;2;2;
64138;PMS5003;50435;43.700;-79.318;2023-11-21T09:32:41;1;1;
64138;PMS5003;50435;43.700;-79.318;2023-11-21T09:35:09;1;1;
64138;PMS5003;50435;43.700;-79.318;2023-11-21T09:37:37;1;1;
64138;PMS5003;50435;43.700;-79.318;2023-11-21T09:40:04;3;3;
64138;PMS5003;50435;43.700;-79.318;2023-11-21T09:42:36;1;1;
64138;PMS5003;50435;43.700;-79.318;2023-11-21T09:45:08;1;1;
64138;PMS5003;50435;43.700;-79.318;2023-11-21T09:47:41;4;3;
64138;PMS5003;50435;43.700;-79.318;2023-11-21T09:50:10;2;2;
64138;PMS5003;50435;43.700;-79.318;2023-11-21T09:52:49;1;1;
64138;PMS5003;50435;43.700;-79.318;2023-11-21T09:55:24;1;1;
64138;PMS5003;50435;43.700;-79.318;2023-11-21T09:57:54;1;1;
64138;PMS5003;50435;43.700;-79.318;2023-11-21T10:00:23;1;1;
64138;PMS5003;50435;43.700;-79.318;2023-11-21T10:02:51;3;3;
64138;PMS5003;50435;43.700;-79.318;2023-11-21T10:05:20;2;2;
64138;PMS5003;50435;43.700;-79.318;2023-11-21T10:07:47;0;0;
64138;PMS5003;50435;43.700;-79.318;2023-11-21T10:10:18;3;1;
64138;PMS5003;50435;43.700;-79.318;2023-11-21T10:12:46;2;2;
64138;PMS5003;50435;43.700;-79.318;2023-11-21T10:15:16;1;1;
64138;PMS5003;50435;43.700;-79.318;2023-11-21T10:17:44;2;2;
64138;PMS5003;50435;43.700;-79.318;2023-11-21T10:20:14;2;2;
64138;PMS5003;50435;43.700;-79.318;2023-11-21T10:22:42;2;2;
64138;PMS5003;50435;43.700;-79.318;2023-11-21T10:25:11;1;1;
64138;PMS5003;50435;43.700;-79.318;2023-11-21T10:27:39;2;1;
64138;PMS5003;50435;43.700;-79.318;2023-11-21T10:30:07;1;1;
64138;PMS5003;50435;43.700;-79.318;2023-11-21T10:32:36;2;2;
64138;PMS5003;50435;43.700;-79.318;2023-11-21T10:35:03;2;2;
64138;PMS5003;50435;43.700;-79.318;2023-11-21T10:37:32;1;1;
64138;PMS5003;50435;43.700;-79.318;2023-11-21T10:39:59;2;2;
64138;PMS5003;50435;43.700;-79.318;2023-11-21T10:42:27;2;2;
64138;PMS5003;50435;43.700;-79.318;2023-11-21T10:44:54;2;2;
64138;PMS5003;50435;43.700;-79.318;2023-11-21T10:47:22;2;2;
64138;PMS5003;50435;43.700;-79.318;2023-11-21T10:49:49;3;3;
64138;PMS5003;50435;43.700;-79.318;2023-11-21T10:52:18;3;3;
64138;PMS5003;50435;43.700;-79.318;2023-11-21T10:54:46;3;2;
64138;PMS5003;50435;43.700;-79.318;2023-11-21T10:57:16;2;2;
64138;PMS5003;50435;43.700;-79.318;2023-11-21T10:59:46;2;1;
64138;PMS5003;50435;43.700;-79.318;2023-11-21T11:02:16;2;2;
64138;PMS5003;50435;43.700;-79.318;2023-11-21T11:04:49;2;2;
64138;PMS5003;50435;43.700;-79.318;2023-11-21T11:07:18;2;2;
64138;PMS5003;50435;43.700;-79.318;2023-11-21T11:09:48;2;2;
64138;PMS5003;50435;43.700;-79.318;2023-11-21T11:12:15;2;2;
64138;PMS5003;50435;43.700;-79.318;2023-11-21T11:14:43;4;4;
64138;PMS5003;50435;43.700;-79.318;2023-11-21T11:17:11;2;2;
64138;PMS5003;50435;43.700;-79.318;2023-11-21T11:19:40;2;2;
64138;PMS5003;50435;43.700;-79.318;2023-11-21T11:22:10;2;2;
64138;PMS5003;50435;43.700;-79.318;2023-11-21T11:24:54;1;1;
64138;PMS5003;50435;43.700;-79.318;2023-11-21T11:27:34;4;3;
64138;PMS5003;50435;43.700;-79.318;2023-11-21T11:30:15;3;3;
64138;PMS5003;50435;43.700;-79.318;2023-11-21T11:35:42;2;2;
64138;PMS5003;50435;43.700;-79.318;2023-11-21T11:38:18;4;2;
64138;PMS5003;50435;43.700;-79.318;2023-11-21T11:40:48;2;2;
64138;PMS5003;50435;43.700;-79.318;2023-11-21T11:43:24;2;2;
64138;PMS5003;50435;43.700;-79.318;2023-11-21T11:45:55;3;2;
64138;PMS5003;50435;43.700;-79.318;2023-11-21T11:48:24;2;2;
64138;PMS5003;50435;43.700;-79.318;2023-11-21T11:51:09;3;1;
64138;PMS5003;50435;43.700;-79.318;2023-11-21T11:53:39;2;2;
64138;PMS5003;50435;43.700;-79.318;2023-11-21T11:56:28;4;2;
64138;PMS5003;50435;43.700;-79.318;2023-11-21T11:58:58;1;1;
64138;PMS5003;50435;43.700;-79.318;2023-11-21T12:01:27;8;6;
64138;PMS5003;50435;43.700;-79.318;2023-11-21T12:04:27;2;2;
64138;PMS5003;50435;43.700;-79.318;2023-11-21T12:06:54;3;3;
64138;PMS5003;50435;43.700;-79.318;2023-11-21T12:09:22;2;2;
64138;PMS5003;50435;43.700;-79.318;2023-11-21T12:11:51;2;2;
64138;PMS5003;50435;43.700;-79.318;2023-11-21T12:14:19;3;3;
64138;PMS5003;50435;43.700;-79.318;2023-11-21T12:16:47;2;2;
64138;PMS5003;50435;43.700;-79.318;2023-11-21T12:19:15;3;3;
64138;PMS5003;50435;43.700;-79.318;2023-11-21T12:21:43;1;1;
64138;PMS5003;50435;43.700;-79.318;2023-11-21T12:24:10;4;3;
64138;PMS5003;50435;43.700;-79.318;2023-11-21T12:26:37;3;3;
64138;PMS5003;50435;43.700;-79.318;2023-11-21T12:29:05;1;1;
64138;PMS5003;50435;43.700;-79.318;2023-11-21T12:31:32;2;2;
64138;PMS5003;50435;43.700;-79.318;2023-11-21T12:34:00;2;2;
64138;PMS5003;50435;43.700;-79.318;2023-11-21T12:36:27;2;2;
64138;PMS5003;50435;43.700;-79.318;2023-11-21T12:38:54;3;2;
64138;PMS5003;50435;43.700;-79.318;2023-11-21T12:41:22;2;2;
64138;PMS5003;50435;43.700;-79.318;2023-11-21T12:43:49;2;2;
64138;PMS5003;50435;43.700;-79.318;2023-11-21T12:46:16;3;3;
64138;PMS5003;50435;43.700;-79.318;2023-11-21T12:48:44;3;3;
64138;PMS5003;50435;43.700;-79.318;2023-11-21T12:51:12;2;2;
64138;PMS5003;50435;43.700;-79.318;2023-11-21T12:53:41;2;2;
64138;PMS5003;50435;43.700;-79.318;2023-11-21T12:56:09;3;3;
64138;PMS5003;50435;43.700;-79.318;2023-11-21T12:58:38;3;3;
64138;PMS5003;50435;43.700;-79.318;2023-11-21T13:01:11;3;3;
64138;PMS5003;50435;43.700;-79.318;2023-11-21T13:03:40;3;2;
64138;PMS5003;50435;43.700;-79.318;2023-11-21T13:06:07;1;1;
64138;PMS5003;50435;43.700;-79.318;2023-11-21T13:08:35;2;2;
64138;PMS5003;50435;43.700;-79.318;2023-11-21T13:11:03;3;1;
64138;PMS5003;50435;43.700;-79.318;2023-11-21T13:13:31;4;2;
64138;PMS5003;50435;43.700;-79.318;2023-11-21T13:15:59;2;2;
64138;PMS5003;50435;43.700;-79.318;2023-11-21T13:18:28;2;2;
64138;PMS5003;50435;43.700;-79.318;2023-11-21T13:20:56;2;2;
64138;PMS5003;50435;43.700;-79.318;2023-11-21T13:23:24;3;3;
64138;PMS5003;50435;43.700;-79.318;2023-11-21T13:25:53;3;3;
64138;PMS5003;50435;43.700;-79.318;2023-11-21T13:28:21;3;3;
64138;PMS5003;50435;43.700;-79.318;2023-11-21T13:30:48;1;1;
64138;PMS5003;50435;43.700;-79.318;2023-11-21T13:33:15;3;3;
64138;PMS5003;50435;43.700;-79.318;2023-11-21T13:35:43;2;2;
64138;PMS5003;50435;43.700;-79.318;2023-11-21T13:38:11;2;2;
64138;PMS5003;50435;43.700;-79.318;2023-11-21T13:40:40;2;2;
64138;PMS5003;50435;43.700;-79.318;2023-11-21T13:43:08;2;2;
64138;PMS5003;50435;43.700;-79.318;2023-11-21T13:45:36;2;2;
64138;PMS5003;50435;43.700;-79.318;2023-11-21T13:48:04;3;3;
64138;PMS5003;50435;43.700;-79.318;2023-11-21T13:50:32;1;1;
64138;PMS5003;50435;43.700;-79.318;2023-11-21T13:52:59;2;2;
64138;PMS5003;50435;43.700;-79.318;2023-11-21T13:55:26;2;2;
64138;PMS5003;50435;43.700;-79.318;2023-11-21T13:57:53;4;3;
64138;PMS5003;50435;43.700;-79.318;2023-11-21T14:00:21;4;4;
64138;PMS5003;50435;43.700;-79.318;2023-11-21T14:02:48;3;3;
64138;PMS5003;50435;43.700;-79.318;2023-11-21T14:05:15;3;3;
64138;PMS5003;50435;43.700;-79.318;2023-11-21T14:07:43;2;2;
64138;PMS5003;50435;43.700;-79.318;2023-11-21T14:10:10;3;3;
64138;PMS5003;50435;43.700;-79.318;2023-11-21T14:12:37;3;2;
64138;PMS5003;50435;43.700;-79.318;2023-11-21T14:15:05;5;4;
64138;PMS5003;50435;43.700;-79.318;2023-11-21T14:17:33;3;2;
64138;PMS5003;50435;43.700;-79.318;2023-11-21T14:20:00;1;1;
64138;PMS5003;50435;43.700;-79.318;2023-11-21T14:22:27;4;3;
64138;PMS5003;50435;43.700;-79.318;2023-11-21T14:24:55;2;2;
64138;PMS5003;50435;43.700;-79.318;2023-11-21T14:27:22;5;5;
64138;PMS5003;50435;43.700;-79.318;2023-11-21T14:29:49;5;3;
64138;PMS5003;50435;43.700;-79.318;2023-11-21T14:32:17;1;1;
64138;PMS5003;50435;43.700;-79.318;2023-11-21T14:34:45;4;2;
64138;PMS5003;50435;43.700;-79.318;2023-11-21T14:37:12;3;3;
64138;PMS5003;50435;43.700;-79.318;2023-11-21T14:39:39;2;2;
64138;PMS5003;50435;43.700;-79.318;2023-11-21T14:42:06;5;3;
64138;PMS5003;50435;43.700;-79.318;2023-11-21T14:44:34;3;2;
64138;PMS5003;50435;43.700;-79.318;2023-11-21T14:47:01;2;2;
64138;PMS5003;50435;43.700;-79.318;2023-11-21T14:49:28;2;2;
64138;PMS5003;50435;43.700;-79.318;2023-11-21T14:51:56;4;4;
64138;PMS5003;50435;43.700;-79.318;2023-11-21T14:54:23;2;2;
64138;PMS5003;50435;43.700;-79.318;2023-11-21T14:56:51;3;3;
64138;PMS5003;50435;43.700;-79.318;2023-11-21T14:59:18;3;3;
64138;PMS5003;50435;43.700;-79.318;2023-11-21T15:01:45;1;1;
64138;PMS5003;50435;43.700;-79.318;2023-11-21T15:04:12;5;4;
64138;PMS5003;50435;43.700;-79.318;2023-11-21T15:06:40;5;3;
64138;PMS5003;50435;43.700;-79.318;2023-11-21T15:09:08;4;4;
64138;PMS5003;50435;43.700;-79.318;2023-11-21T15:11:35;2;2;
64138;PMS5003;50435;43.700;-79.318;2023-11-21T15:14:02;5;3;
64138;PMS5003;50435;43.700;-79.318;2023-11-21T15:16:30;2;2;
64138;PMS5003;50435;43.700;-79.318;2023-11-21T15:18:57;4;3;
64138;PMS5003;50435;43.700;-79.318;2023-11-21T15:21:24;6;5;
64138;PMS5003;50435;43.700;-79.318;2023-11-21T15:23:51;4;4;
64138;PMS5003;50435;43.700;-79.318;2023-11-21T15:26:19;3;3;
64138;PMS5003;50435;43.700;-79.318;2023-11-21T15:28:46;3;3;
64138;PMS5003;50435;43.700;-79.318;2023-11-21T15:31:13;4;4;
64138;PMS5003;50435;43.700;-79.318;2023-11-21T15:33:41;4;4;
64138;PMS5003;50435;43.700;-79.318;2023-11-21T15:36:08;5;5;
64138;PMS5003;50435;43.700;-79.318;2023-11-21T15:38:36;6;5;
64138;PMS5003;50435;43.700;-79.318;2023-11-21T15:41:03;4;4;
64138;PMS5003;50435;43.700;-79.318;2023-11-21T15:43:31;4;4;
64138;PMS5003;50435;43.700;-79.318;2023-11-21T15:45:58;3;3;
64138;PMS5003;50435;43.700;-79.318;2023-11-21T15:48:25;4;4;
64138;PMS5003;50435;43.700;-79.318;2023-11-21T15:50:52;6;4;
64138;PMS5003;50435;43.700;-79.318;2023-11-21T15:53:20;3;3;
64138;PMS5003;50435;43.700;-79.318;2023-11-21T15:55:47;6;5;
64138;PMS5003;50435;43.700;-79.318;2023-11-21T15:58:14;3;3;
64138;PMS5003;50435;43.700;-79.318;2023-11-21T16:00:42;4;4;
64138;PMS5003;50435;43.700;-79.318;2023-11-21T16:03:09;3;3;
64138;PMS5003;50435;43.700;-79.318;2023-11-21T16:05:37;4;4;
64138;PMS5003;50435;43.700;-79.318;2023-11-21T16:08:04;5;5;
64138;PMS5003;50435;43.700;-79.318;2023-11-21T16:10:32;8;5;
64138;PMS5003;50435;43.700;-79.318;2023-11-21T16:12:59;3;3;
64138;PMS5003;50435;43.700;-79.318;2023-11-21T16:15:27;5;4;
64138;PMS5003;50435;43.700;-79.318;2023-11-21T16:17:54;3;3;
64138;PMS5003;50435;43.700;-79.318;2023-11-21T16:20:21;5;5;
64138;PMS5003;50435;43.700;-79.318;2023-11-21T16:22:48;5;5;
64138;PMS5003;50435;43.700;-79.318;2023-11-21T16:25:16;5;5;
64138;PMS5003;50435;43.700;-79.318;2023-11-21T16:27:43;4;3;